createdAt,value
2017-08-19T00:01:22.088Z,3.30
2017-08-19T00:03:48.707Z,3.60
2017-08-19T00:06:15.344Z,3.37
2017-08-19T00:08:41.968Z,4.43
2017-08-19T00:11:08.590Z,4.27
2017-08-19T00:13:35.260Z,3.83
2017-08-19T00:16:01.882Z,4.83
2017-08-19T00:18:28.519Z,3.67
2017-08-19T00:20:55.138Z,3.10
2017-08-19T00:23:21.759Z,3.80
2017-08-19T00:25:48.401Z,3.57
2017-08-19T00:28:15.028Z,3.27
2017-08-19T00:30:41.659Z,3.83
2017-08-19T00:33:08.303Z,3.87
2017-08-19T00:35:34.937Z,3.73
2017-08-19T00:38:01.546Z,4.00
2017-08-19T00:40:28.195Z,3.10
2017-08-19T00:42:54.799Z,3.53
2017-08-19T00:45:21.444Z,2.80
2017-08-19T00:47:48.050Z,3.57
2017-08-19T00:50:14.664Z,3.10
2017-08-19T00:52:41.307Z,3.50
2017-08-19T00:55:07.915Z,2.93
2017-08-19T00:57:34.586Z,3.20
2017-08-19T01:00:01.181Z,2.73
2017-08-19T01:02:27.810Z,2.87
2017-08-19T01:04:54.435Z,3.17
2017-08-19T01:07:21.044Z,2.47
2017-08-19T01:09:47.651Z,3.90
2017-08-19T01:12:14.282Z,3.07
2017-08-19T01:14:41.266Z,4.33
2017-08-19T01:17:07.893Z,3.30
2017-08-19T01:19:34.521Z,3.10
2017-08-19T01:22:01.174Z,3.13
2017-08-19T01:24:27.812Z,3.87
2017-08-19T01:26:57.484Z,3.30
2017-08-19T01:29:24.099Z,3.13
2017-08-19T01:31:50.760Z,3.63
2017-08-19T01:34:17.372Z,2.97
2017-08-19T01:36:44.002Z,3.07
2017-08-19T01:39:10.635Z,4.53
2017-08-19T01:41:37.250Z,4.00
2017-08-19T01:44:03.893Z,3.27
2017-08-19T01:46:30.504Z,4.70
2017-08-19T01:48:57.126Z,2.83
2017-08-19T01:51:23.747Z,3.70
2017-08-19T01:53:50.376Z,3.07
2017-08-19T01:56:17.006Z,3.53
2017-08-19T01:58:43.651Z,3.90
2017-08-19T02:01:10.270Z,2.70
2017-08-19T02:03:36.920Z,3.53
2017-08-19T02:06:03.535Z,3.13
2017-08-19T02:08:30.160Z,3.63
2017-08-19T02:10:56.780Z,4.77
2017-08-19T02:13:23.434Z,3.30
2017-08-19T02:15:50.067Z,3.30
2017-08-19T02:18:16.698Z,3.20
2017-08-19T02:20:43.335Z,3.10
2017-08-19T02:23:10.006Z,3.20
2017-08-19T02:25:36.646Z,3.20
2017-08-19T02:28:03.286Z,4.80
2017-08-19T02:30:29.932Z,2.87
2017-08-19T02:32:56.576Z,3.53
2017-08-19T02:35:23.212Z,2.80
2017-08-19T02:37:49.829Z,4.40
2017-08-19T02:40:16.486Z,2.83
2017-08-19T02:42:43.124Z,2.57
2017-08-19T02:45:09.743Z,3.20
2017-08-19T02:47:36.395Z,4.07
2017-08-19T02:50:03.039Z,3.00
2017-08-19T02:52:29.644Z,5.83
2017-08-19T02:54:56.295Z,2.70
2017-08-19T02:57:22.906Z,3.47
2017-08-19T02:59:49.543Z,3.33
2017-08-19T03:02:16.151Z,3.53
2017-08-19T03:04:42.791Z,3.67
2017-08-19T03:07:09.435Z,3.30
2017-08-19T03:09:36.056Z,3.07
2017-08-19T03:12:02.680Z,3.97
2017-08-19T03:14:30.174Z,4.10
2017-08-19T03:16:56.802Z,3.73
2017-08-19T03:19:23.442Z,3.87
2017-08-19T03:21:50.066Z,3.87
2017-08-19T03:24:16.737Z,3.40
2017-08-19T03:26:43.373Z,3.33
2017-08-19T03:29:10.009Z,3.20
2017-08-19T03:31:36.634Z,3.03
2017-08-19T03:34:03.286Z,3.73
2017-08-19T03:36:29.931Z,3.97
2017-08-19T03:38:56.560Z,4.30
2017-08-19T03:41:23.178Z,4.20
2017-08-19T03:43:49.823Z,3.23
2017-08-19T03:46:16.443Z,3.10
2017-08-19T03:48:43.233Z,3.77
2017-08-19T03:51:09.886Z,3.50
2017-08-19T03:53:36.527Z,3.07
2017-08-19T03:56:03.158Z,4.83
2017-08-19T03:58:29.774Z,3.30
2017-08-19T04:00:56.445Z,3.23
2017-08-19T04:03:23.067Z,3.43
2017-08-19T04:05:49.688Z,2.83
2017-08-19T04:08:16.331Z,3.60
2017-08-19T04:10:42.957Z,4.40
2017-08-19T04:13:09.611Z,3.83
2017-08-19T04:15:36.246Z,3.30
2017-08-19T04:18:02.867Z,3.60
2017-08-19T04:20:29.518Z,3.23
2017-08-19T04:22:56.150Z,3.10
2017-08-19T04:25:22.808Z,3.30
2017-08-19T04:27:49.460Z,2.70
2017-08-19T04:30:16.132Z,3.07
2017-08-19T04:32:42.747Z,3.37
2017-08-19T04:35:09.368Z,2.77
2017-08-19T04:37:36.012Z,3.30
2017-08-19T04:40:02.790Z,4.43
2017-08-19T04:42:29.524Z,3.90
2017-08-19T04:44:56.289Z,4.70
2017-08-19T04:47:22.931Z,2.60
2017-08-19T04:49:49.570Z,2.90
2017-08-19T04:52:16.204Z,4.30
2017-08-19T04:54:42.858Z,2.80
2017-08-19T04:57:09.479Z,3.90
2017-08-19T04:59:36.114Z,4.33
2017-08-19T05:02:02.780Z,5.10
2017-08-19T05:04:29.418Z,3.50
2017-08-19T05:06:56.064Z,3.00
2017-08-19T05:09:22.680Z,5.20
2017-08-19T05:11:49.307Z,3.40
2017-08-19T05:14:15.936Z,3.00
2017-08-19T05:16:42.587Z,2.63
2017-08-19T05:19:09.235Z,3.30
2017-08-19T05:21:35.847Z,3.10
2017-08-19T05:24:02.506Z,3.97
2017-08-19T05:26:29.117Z,4.70
2017-08-19T05:28:56.071Z,2.90
2017-08-19T05:31:22.700Z,3.33
2017-08-19T05:33:49.315Z,3.00
2017-08-19T05:36:15.957Z,3.40
2017-08-19T05:38:42.601Z,3.00
2017-08-19T05:41:09.231Z,1.97
2017-08-19T05:43:35.875Z,3.90
2017-08-19T05:46:02.520Z,3.43
2017-08-19T05:48:29.198Z,3.00
2017-08-19T05:50:55.802Z,2.70
2017-08-19T05:53:22.438Z,2.80
2017-08-19T05:55:49.060Z,2.13
2017-08-19T05:58:15.697Z,3.40
2017-08-19T06:00:42.717Z,2.50
2017-08-19T06:03:09.330Z,2.43
2017-08-19T06:05:35.943Z,3.13
2017-08-19T06:08:02.572Z,2.50
2017-08-19T06:10:29.180Z,3.83
2017-08-19T06:12:55.828Z,2.40
2017-08-19T06:15:22.459Z,1.93
2017-08-19T06:17:49.084Z,2.30
2017-08-19T06:20:15.735Z,3.33
2017-08-19T06:22:42.367Z,2.70
2017-08-19T06:25:09.016Z,1.73
2017-08-19T06:27:35.971Z,2.53
2017-08-19T06:30:03.300Z,2.67
2017-08-19T06:32:29.910Z,2.80
2017-08-19T06:34:56.552Z,2.47
2017-08-19T06:37:23.172Z,1.93
2017-08-19T06:39:50.950Z,2.77
2017-08-19T06:42:17.604Z,2.43
2017-08-19T06:44:44.216Z,2.10
2017-08-19T06:47:10.850Z,2.90
2017-08-19T06:49:37.463Z,3.13
2017-08-19T06:52:04.067Z,4.83
2017-08-19T06:54:30.703Z,2.80
2017-08-19T06:56:58.474Z,2.20
2017-08-19T06:59:25.087Z,3.30
2017-08-19T07:01:51.736Z,3.33
2017-08-19T07:04:18.364Z,2.97
2017-08-19T07:06:44.997Z,2.33
2017-08-19T07:09:11.636Z,5.27
2017-08-19T07:11:38.243Z,2.70
2017-08-19T07:14:04.901Z,2.30
2017-08-19T07:16:31.556Z,2.27
2017-08-19T07:18:58.167Z,2.37
2017-08-19T07:21:24.842Z,3.13
2017-08-19T07:23:51.465Z,4.07
2017-08-19T07:26:18.598Z,2.90
2017-08-19T07:28:45.213Z,2.70
2017-08-19T07:31:11.818Z,2.33
2017-08-19T07:33:38.442Z,3.43
2017-08-19T07:36:05.068Z,2.40
2017-08-19T07:38:31.694Z,3.87
2017-08-19T07:40:58.315Z,2.60
2017-08-19T07:43:26.533Z,2.90
2017-08-19T07:45:53.152Z,2.40
2017-08-19T07:48:19.796Z,2.60
2017-08-19T07:50:46.446Z,2.53
2017-08-19T07:53:13.055Z,3.30
2017-08-19T07:55:39.688Z,3.00
2017-08-19T07:58:06.307Z,3.33
2017-08-19T08:00:32.913Z,2.53
2017-08-19T08:02:59.562Z,3.37
2017-08-19T08:05:26.190Z,2.70
2017-08-19T08:07:52.887Z,3.80
2017-08-19T08:10:22.258Z,4.07
2017-08-19T08:12:48.976Z,3.73
2017-08-19T08:15:16.298Z,4.23
2017-08-19T08:17:42.946Z,2.70
2017-08-19T08:20:09.583Z,2.80
2017-08-19T08:22:36.228Z,3.20
2017-08-19T08:25:03.456Z,3.10
2017-08-19T08:27:31.068Z,4.00
2017-08-19T08:29:57.695Z,5.60
2017-08-19T08:32:24.331Z,3.10
2017-08-19T08:34:50.944Z,2.90
2017-08-19T08:37:17.571Z,3.37
2017-08-19T08:39:44.204Z,3.70
2017-08-19T08:42:10.822Z,2.80
2017-08-19T08:44:37.467Z,2.80
2017-08-19T08:47:04.092Z,3.40
2017-08-19T08:49:31.659Z,3.67
2017-08-19T08:51:58.307Z,2.87
2017-08-19T08:54:24.959Z,3.23
2017-08-19T08:56:51.578Z,2.90
2017-08-19T08:59:18.215Z,4.00
2017-08-19T09:01:45.205Z,3.90
2017-08-19T09:04:11.841Z,3.50
2017-08-19T09:06:38.445Z,2.90
2017-08-19T09:09:05.119Z,3.30
2017-08-19T09:11:31.730Z,4.20
2017-08-19T09:13:58.383Z,3.50
2017-08-19T09:16:25.642Z,4.50
2017-08-19T09:18:52.259Z,4.90
2017-08-19T09:21:19.837Z,3.70
2017-08-19T09:23:46.758Z,4.47
2017-08-19T09:26:13.938Z,3.47
2017-08-19T09:28:40.760Z,3.60
2017-08-19T09:31:07.443Z,3.10
2017-08-19T09:33:34.064Z,4.10
2017-08-19T09:36:00.675Z,4.00
2017-08-19T09:38:27.349Z,4.90
2017-08-19T09:40:53.970Z,4.33
2017-08-19T09:43:20.608Z,3.27
2017-08-19T09:45:47.276Z,3.87
2017-08-19T09:48:13.913Z,5.13
2017-08-19T09:50:40.518Z,4.27
2017-08-19T09:53:07.672Z,3.07
2017-08-19T09:55:34.311Z,2.40
2017-08-19T09:58:00.947Z,2.80
2017-08-19T10:00:28.384Z,2.50
2017-08-19T10:02:55.029Z,2.47
2017-08-19T10:05:21.656Z,2.60
2017-08-19T10:07:49.763Z,2.27
2017-08-19T10:10:22.257Z,2.33
2017-08-19T10:12:48.897Z,2.37
2017-08-19T10:15:15.536Z,2.70
2017-08-19T10:17:42.150Z,3.27
2017-08-19T10:20:08.800Z,2.77
2017-08-19T10:22:35.421Z,3.30
2017-08-19T10:25:02.069Z,2.80
2017-08-19T10:27:28.680Z,3.37
2017-08-19T10:29:55.339Z,2.50
2017-08-19T10:32:21.964Z,2.37
2017-08-19T10:34:48.611Z,2.60
2017-08-19T10:37:15.263Z,2.50
2017-08-19T10:39:41.858Z,2.50
2017-08-19T10:42:08.499Z,2.23
2017-08-19T10:44:35.107Z,3.20
2017-08-19T10:47:01.731Z,4.37
2017-08-19T10:49:28.414Z,3.03
2017-08-19T10:51:55.916Z,3.03
2017-08-19T10:54:22.558Z,3.00
2017-08-19T10:56:49.926Z,2.50
2017-08-19T10:59:16.556Z,2.30
2017-08-19T11:01:43.206Z,2.97
2017-08-19T11:04:09.831Z,3.20
2017-08-19T11:06:36.462Z,2.73
2017-08-19T11:09:03.880Z,2.50
2017-08-19T11:11:30.525Z,2.47
2017-08-19T11:13:57.137Z,2.90
2017-08-19T11:16:23.792Z,1.93
2017-08-19T11:18:50.439Z,2.30
2017-08-19T11:21:17.091Z,2.40
2017-08-19T11:23:43.700Z,3.80
2017-08-19T11:26:10.315Z,2.03
2017-08-19T11:28:36.978Z,2.60
2017-08-19T11:31:03.613Z,2.90
2017-08-19T11:33:30.223Z,2.50
2017-08-19T11:35:56.853Z,2.50
2017-08-19T11:38:23.481Z,2.57
2017-08-19T11:40:50.128Z,2.40
2017-08-19T11:43:18.002Z,2.33
2017-08-19T11:45:44.636Z,2.83
2017-08-19T11:48:11.267Z,2.07
2017-08-19T11:50:37.890Z,2.70
2017-08-19T11:53:06.044Z,2.70
2017-08-19T11:55:32.656Z,2.30
2017-08-19T11:57:59.322Z,4.40
2017-08-19T12:00:25.954Z,3.17
2017-08-19T12:02:54.431Z,2.40
2017-08-19T12:05:21.043Z,2.63
2017-08-19T12:07:47.688Z,2.70
2017-08-19T12:10:14.323Z,1.70
2017-08-19T12:12:40.936Z,2.10
2017-08-19T12:15:07.557Z,2.07
2017-08-19T12:17:34.224Z,1.70
2017-08-19T12:20:00.875Z,1.63
2017-08-19T12:22:27.487Z,1.60
2017-08-19T12:24:54.740Z,1.67
2017-08-19T12:27:21.410Z,2.43
2017-08-19T12:29:48.025Z,3.60
2017-08-19T12:32:15.496Z,2.37
2017-08-19T12:34:42.151Z,3.40
2017-08-19T12:37:08.800Z,2.60
2017-08-19T12:39:35.431Z,2.30
2017-08-19T12:42:02.039Z,2.67
2017-08-19T12:44:28.678Z,2.70
2017-08-19T12:46:55.325Z,2.70
2017-08-19T12:49:21.935Z,2.60
2017-08-19T12:51:50.401Z,3.40
2017-08-19T12:54:17.310Z,2.33
2017-08-19T12:56:44.389Z,2.27
2017-08-19T12:59:11.047Z,2.60
2017-08-19T13:01:37.703Z,2.87
2017-08-19T13:04:04.372Z,2.37
2017-08-19T13:06:30.992Z,2.13
2017-08-19T13:08:57.619Z,2.10
2017-08-19T13:11:25.204Z,1.50
2017-08-19T13:13:51.828Z,2.00
2017-08-19T13:16:18.455Z,2.10
2017-08-19T13:18:45.101Z,1.93
2017-08-19T13:21:11.751Z,2.10
2017-08-19T13:23:38.367Z,2.07
2017-08-19T13:26:04.994Z,1.80
2017-08-19T13:28:31.623Z,1.90
2017-08-19T13:30:58.244Z,1.87
2017-08-19T13:33:24.859Z,1.83
2017-08-19T13:35:51.511Z,2.20
2017-08-19T13:38:18.142Z,2.10
2017-08-19T13:40:44.779Z,1.80
2017-08-19T13:43:11.377Z,1.30
2017-08-19T13:45:38.014Z,1.60
2017-08-19T13:48:04.634Z,1.50
2017-08-19T13:50:31.264Z,1.43
2017-08-19T13:52:57.888Z,1.50
2017-08-19T13:55:24.523Z,1.53
2017-08-19T13:57:51.154Z,2.60
2017-08-19T14:00:17.806Z,1.50
2017-08-19T14:02:44.406Z,1.57
2017-08-19T14:05:11.049Z,1.60
2017-08-19T14:07:37.684Z,1.97
2017-08-19T14:10:04.324Z,1.70
2017-08-19T14:12:30.964Z,1.43
2017-08-19T14:14:57.605Z,1.77
2017-08-19T14:17:24.234Z,1.70
2017-08-19T14:19:50.885Z,3.10
2017-08-19T14:22:17.510Z,1.87
2017-08-19T14:24:44.136Z,2.37
2017-08-19T14:27:10.791Z,2.07
2017-08-19T14:29:37.411Z,1.90
2017-08-19T14:32:04.046Z,1.90
2017-08-19T14:34:30.690Z,1.97
2017-08-19T14:36:57.328Z,1.73
2017-08-19T14:39:23.986Z,3.07
2017-08-19T14:41:50.631Z,2.50
2017-08-19T14:44:17.257Z,2.10
2017-08-19T14:46:43.880Z,3.00
2017-08-19T14:49:10.485Z,2.70
2017-08-19T14:51:37.159Z,2.50
2017-08-19T14:54:03.795Z,3.07
2017-08-19T14:56:30.473Z,4.90
2017-08-19T14:58:57.089Z,3.17
2017-08-19T15:01:23.700Z,3.17
2017-08-19T15:03:50.692Z,3.63
2017-08-19T15:06:17.317Z,3.13
2017-08-19T15:08:43.935Z,3.67
2017-08-19T15:11:10.600Z,4.30
2017-08-19T15:13:37.215Z,4.33
2017-08-19T15:16:03.846Z,5.43
2017-08-19T15:18:30.499Z,5.90
2017-08-19T15:20:57.142Z,5.40
2017-08-19T15:23:23.753Z,4.30
2017-08-19T15:25:50.384Z,3.83
2017-08-19T15:28:17.024Z,3.47
2017-08-19T15:30:43.648Z,3.10
2017-08-19T15:33:10.270Z,3.67
2017-08-19T15:35:36.883Z,2.90
2017-08-19T15:38:03.515Z,4.10
2017-08-19T15:40:30.148Z,2.80
2017-08-19T15:42:56.872Z,2.83
2017-08-19T15:45:23.492Z,2.50
2017-08-19T15:47:50.144Z,3.00
2017-08-19T15:50:16.773Z,3.90
2017-08-19T15:52:43.395Z,3.37
2017-08-19T15:55:10.166Z,2.20
2017-08-19T15:57:36.786Z,2.60
2017-08-19T16:00:03.413Z,3.13
2017-08-19T16:02:30.045Z,2.10
2017-08-19T16:04:57.029Z,3.70
2017-08-19T16:07:23.675Z,2.63
2017-08-19T16:09:50.325Z,3.10
2017-08-19T16:12:16.960Z,2.90
2017-08-19T16:14:43.571Z,2.57
2017-08-19T16:17:10.198Z,3.00
2017-08-19T16:19:36.836Z,3.17
2017-08-19T16:22:03.446Z,3.50
2017-08-19T16:24:30.088Z,3.50
2017-08-19T16:26:56.705Z,3.30
2017-08-19T16:29:23.337Z,2.63
2017-08-19T16:31:49.963Z,2.90
2017-08-19T16:34:16.609Z,3.77
2017-08-19T16:36:43.818Z,2.93
2017-08-19T16:39:10.456Z,3.73
2017-08-19T16:41:37.064Z,3.43
2017-08-19T16:44:03.675Z,3.47
2017-08-19T16:46:30.642Z,3.80
2017-08-19T16:48:57.292Z,4.60
2017-08-19T16:51:23.912Z,3.43
2017-08-19T16:53:50.524Z,4.20
2017-08-19T16:56:17.161Z,4.03
2017-08-19T16:58:43.776Z,4.30
2017-08-19T17:01:11.306Z,4.27
2017-08-19T17:03:37.961Z,3.60
2017-08-19T17:06:04.587Z,4.17
2017-08-19T17:08:31.212Z,4.07
2017-08-19T17:10:57.847Z,3.30
2017-08-19T17:13:24.524Z,3.27
2017-08-19T17:15:51.162Z,3.43
2017-08-19T17:18:17.808Z,3.40
2017-08-19T17:20:44.442Z,2.40
2017-08-19T17:23:11.068Z,2.20
2017-08-19T17:25:37.720Z,2.17
2017-08-19T17:28:04.390Z,2.43
2017-08-19T17:30:31.068Z,2.23
2017-08-19T17:32:57.700Z,2.50
2017-08-19T17:35:24.338Z,2.10
2017-08-19T17:37:51.114Z,2.17
2017-08-19T17:40:17.800Z,2.87
2017-08-19T17:42:44.424Z,3.87
2017-08-19T17:45:11.060Z,2.80
2017-08-19T17:47:37.686Z,2.53
2017-08-19T17:50:04.319Z,2.50
2017-08-19T17:52:31.020Z,2.00
2017-08-19T17:54:57.669Z,2.50
2017-08-19T17:57:24.290Z,2.00
2017-08-19T17:59:50.907Z,2.80
2017-08-19T18:02:17.535Z,2.30
2017-08-19T18:04:44.166Z,2.33
2017-08-19T18:07:10.786Z,1.80
2017-08-19T18:09:37.436Z,2.20
2017-08-19T18:12:04.049Z,1.83
2017-08-19T18:14:30.672Z,2.30
2017-08-19T18:16:57.408Z,2.10
2017-08-19T18:19:24.026Z,2.97
2017-08-19T18:21:50.662Z,2.30
2017-08-19T18:24:17.271Z,2.40
2017-08-19T18:26:43.895Z,2.73
2017-08-19T18:29:10.511Z,2.50
2017-08-19T18:31:37.180Z,3.60
2017-08-19T18:34:03.822Z,3.27
2017-08-19T18:36:30.436Z,2.13
2017-08-19T18:38:57.083Z,2.97
2017-08-19T18:41:23.702Z,2.63
2017-08-19T18:43:50.320Z,3.27
2017-08-19T18:46:16.944Z,2.97
2017-08-19T18:48:43.605Z,2.17
2017-08-19T18:51:10.253Z,2.87
2017-08-19T18:53:36.875Z,2.80
2017-08-19T18:56:03.495Z,2.90
2017-08-19T18:58:30.155Z,3.10
2017-08-19T19:00:56.815Z,3.20
2017-08-19T19:03:23.495Z,2.80
2017-08-19T19:05:50.114Z,3.30
2017-08-19T19:08:16.755Z,3.60
2017-08-19T19:10:43.362Z,3.70
2017-08-19T19:13:10.007Z,4.40
2017-08-19T19:15:36.648Z,3.70
2017-08-19T19:18:03.301Z,3.97
2017-08-19T19:20:29.951Z,3.17
2017-08-19T19:22:56.578Z,4.53
2017-08-19T19:25:23.211Z,4.17
2017-08-19T19:27:49.851Z,4.13
2017-08-19T19:30:16.490Z,4.67
2017-08-19T19:32:43.133Z,4.23
2017-08-19T19:35:09.775Z,4.17
2017-08-19T19:37:36.410Z,5.13
2017-08-19T19:40:03.047Z,5.10
2017-08-19T19:42:29.672Z,5.03
2017-08-19T19:44:56.334Z,7.07
2017-08-19T19:47:22.950Z,7.17
2017-08-19T19:49:49.573Z,7.33
2017-08-19T19:52:16.225Z,6.23
2017-08-19T19:54:42.878Z,4.50
2017-08-19T19:57:09.521Z,6.23
2017-08-19T19:59:36.178Z,7.80
2017-08-19T20:02:02.818Z,4.80
2017-08-19T20:04:29.435Z,6.00
2017-08-19T20:06:56.080Z,4.63
2017-08-19T20:09:22.714Z,5.30
2017-08-19T20:11:49.348Z,5.37
2017-08-19T20:14:16.083Z,5.50
2017-08-19T20:16:42.728Z,5.90
2017-08-19T20:19:09.352Z,5.90
2017-08-19T20:21:36.029Z,6.30
2017-08-19T20:24:02.664Z,6.47
2017-08-19T20:26:29.295Z,6.10
2017-08-19T20:28:55.944Z,6.73
2017-08-19T20:31:22.610Z,5.97
2017-08-19T20:33:49.289Z,8.77
2017-08-19T20:36:15.921Z,9.00
2017-08-19T20:38:42.552Z,7.30
2017-08-19T20:41:09.250Z,7.10
2017-08-19T20:43:35.896Z,6.80
2017-08-19T20:46:02.521Z,6.83
2017-08-19T20:48:29.176Z,9.30
2017-08-19T20:50:55.816Z,7.13
2017-08-19T20:53:22.455Z,7.33
2017-08-19T20:55:49.101Z,6.90
2017-08-19T20:58:15.721Z,6.57
2017-08-19T21:00:42.396Z,6.77
2017-08-19T21:03:09.020Z,7.90
2017-08-19T21:05:35.668Z,7.93
2017-08-19T21:08:02.350Z,8.40
2017-08-19T21:10:28.950Z,7.80
2017-08-19T21:12:55.591Z,6.23
2017-08-19T21:15:22.210Z,7.83
2017-08-19T21:17:48.867Z,11.03
2017-08-19T21:20:15.541Z,9.97
2017-08-19T21:22:42.203Z,11.33
2017-08-19T21:25:08.823Z,6.90
2017-08-19T21:27:35.446Z,6.60
2017-08-19T21:30:02.100Z,6.20
2017-08-19T21:32:29.388Z,5.60
2017-08-19T21:34:56.054Z,6.13
2017-08-19T21:37:22.684Z,6.37
2017-08-19T21:39:49.286Z,5.83
2017-08-19T21:42:17.033Z,6.50
2017-08-19T21:44:43.677Z,6.47
2017-08-19T21:47:10.309Z,6.37
2017-08-19T21:49:36.953Z,5.80
2017-08-19T21:52:03.581Z,5.10
2017-08-19T21:54:30.200Z,6.33
2017-08-19T21:56:56.843Z,6.73
2017-08-19T21:59:23.477Z,5.30
2017-08-19T22:01:51.263Z,4.40
2017-08-19T22:04:17.888Z,4.73
2017-08-19T22:06:44.556Z,5.03
2017-08-19T22:09:11.200Z,4.87
2017-08-19T22:11:37.855Z,5.00
2017-08-19T22:14:04.476Z,4.40
2017-08-19T22:16:31.110Z,4.90
2017-08-19T22:18:57.758Z,5.40
2017-08-19T22:21:24.370Z,4.30
2017-08-19T22:23:51.014Z,4.37
2017-08-19T22:26:17.631Z,4.57
2017-08-19T22:28:44.275Z,5.23
2017-08-19T22:31:11.785Z,5.67
2017-08-19T22:33:38.439Z,5.00
2017-08-19T22:36:05.075Z,4.87
2017-08-19T22:38:31.706Z,4.37
2017-08-19T22:40:58.355Z,5.57
2017-08-19T22:43:24.991Z,4.67
2017-08-19T22:45:51.620Z,4.60
2017-08-19T22:48:18.232Z,5.33
2017-08-19T22:50:44.924Z,5.10
2017-08-19T22:53:11.539Z,5.40
2017-08-19T22:55:38.168Z,4.63
2017-08-19T22:58:04.800Z,3.77
2017-08-19T23:00:31.433Z,3.57
2017-08-19T23:02:58.084Z,4.30
2017-08-19T23:05:25.530Z,4.50
2017-08-19T23:07:52.168Z,4.13
2017-08-19T23:10:18.776Z,4.50
2017-08-19T23:12:45.420Z,4.17
2017-08-19T23:15:12.068Z,4.60
2017-08-19T23:17:38.687Z,3.83
2017-08-19T23:20:05.359Z,4.00
2017-08-19T23:22:31.971Z,3.70
2017-08-19T23:24:58.611Z,3.90
2017-08-19T23:27:25.282Z,4.60
2017-08-19T23:29:51.932Z,6.00
2017-08-19T23:32:18.536Z,4.60
2017-08-19T23:34:45.170Z,4.50
2017-08-19T23:37:11.831Z,4.80
2017-08-19T23:39:38.440Z,4.00
2017-08-19T23:42:05.063Z,5.07
2017-08-19T23:44:31.722Z,4.37
2017-08-19T23:46:58.341Z,4.90
2017-08-19T23:49:24.988Z,4.60
2017-08-19T23:51:52.241Z,4.60
2017-08-19T23:54:18.890Z,4.20
2017-08-19T23:56:45.533Z,4.33
2017-08-19T23:59:12.161Z,3.90
